createdAt,value
2023-05-09T00:00:15.029Z,41.70
2023-05-09T00:01:15.016Z,41.71
2023-05-09T00:02:15.108Z,41.71
2023-05-09T00:03:15.178Z,41.70
2023-05-09T00:04:15.098Z,41.69
2023-05-09T00:05:15.551Z,41.69
2023-05-09T00:06:15.036Z,41.68
2023-05-09T00:07:15.086Z,41.68
2023-05-09T00:08:15.056Z,41.66
2023-05-09T00:09:15.097Z,41.67
2023-05-09T00:10:15.109Z,41.68
2023-05-09T00:11:15.049Z,41.67
2023-05-09T00:12:15.058Z,41.67
2023-05-09T00:13:15.072Z,41.66
2023-05-09T00:14:15.085Z,41.66
2023-05-09T00:15:15.338Z,41.65
2023-05-09T00:16:15.108Z,41.64
2023-05-09T00:17:15.143Z,41.63
2023-05-09T00:18:15.101Z,41.65
2023-05-09T00:19:15.192Z,41.64
2023-05-09T00:20:15.077Z,41.64
2023-05-09T00:21:15.070Z,41.64
2023-05-09T00:22:15.132Z,41.62
2023-05-09T00:23:15.084Z,41.61
2023-05-09T00:24:15.055Z,41.62
2023-05-09T00:25:15.318Z,41.64
2023-05-09T00:26:15.053Z,41.62
2023-05-09T00:27:15.119Z,41.62
2023-05-09T00:28:15.121Z,41.60
2023-05-09T00:29:15.070Z,41.62
2023-05-09T00:30:15.105Z,41.62
2023-05-09T00:31:15.091Z,41.61
2023-05-09T00:32:15.128Z,41.61
2023-05-09T00:33:15.123Z,41.59
2023-05-09T00:34:15.067Z,41.61
2023-05-09T00:35:15.380Z,41.57
2023-05-09T00:36:15.080Z,41.58
2023-05-09T00:37:15.082Z,41.59
2023-05-09T00:38:15.068Z,41.57
2023-05-09T00:39:15.093Z,41.57
2023-05-09T00:40:15.055Z,41.57
2023-05-09T00:41:15.117Z,41.56
2023-05-09T00:42:15.103Z,41.57
2023-05-09T00:43:15.049Z,41.56
2023-05-09T00:44:15.083Z,41.55
2023-05-09T00:45:15.257Z,41.55
2023-05-09T00:46:15.153Z,41.53
2023-05-09T00:47:15.066Z,41.55
2023-05-09T00:48:15.060Z,41.55
2023-05-09T00:49:15.070Z,41.53
2023-05-09T00:50:15.071Z,41.52
2023-05-09T00:51:15.150Z,41.52
2023-05-09T00:52:15.138Z,41.53
2023-05-09T00:53:15.107Z,41.53
2023-05-09T00:54:15.099Z,41.51
2023-05-09T00:55:15.328Z,41.51
2023-05-09T00:56:15.070Z,41.51
2023-05-09T00:57:15.074Z,41.52
2023-05-09T00:58:15.077Z,41.52
2023-05-09T00:59:16.966Z,41.52
2023-05-09T01:00:15.114Z,41.52
2023-05-09T01:01:15.122Z,41.51
2023-05-09T01:02:15.186Z,41.51
2023-05-09T01:03:15.159Z,41.50
2023-05-09T01:04:15.077Z,41.48
2023-05-09T01:05:15.400Z,41.49
2023-05-09T01:06:15.103Z,41.50
2023-05-09T01:07:15.167Z,41.49
2023-05-09T01:08:15.091Z,41.46
2023-05-09T01:09:15.111Z,41.49
2023-05-09T01:10:15.113Z,41.48
2023-05-09T01:11:15.132Z,41.48
2023-05-09T01:12:15.127Z,41.48
2023-05-09T01:13:15.219Z,41.44
2023-05-09T01:14:15.112Z,41.48
2023-05-09T01:15:15.312Z,41.48
2023-05-09T01:16:15.162Z,41.45
2023-05-09T01:17:15.155Z,41.45
2023-05-09T01:18:15.144Z,41.46
2023-05-09T01:19:15.127Z,41.46
2023-05-09T01:20:15.103Z,41.44
2023-05-09T01:21:15.226Z,41.46
2023-05-09T01:22:15.151Z,41.44
2023-05-09T01:23:15.243Z,41.47
2023-05-09T01:24:15.100Z,41.43
2023-05-09T01:25:15.436Z,41.46
2023-05-09T01:26:15.126Z,41.43
2023-05-09T01:27:15.131Z,41.44
2023-05-09T01:28:15.113Z,41.42
2023-05-09T01:29:15.154Z,41.44
2023-05-09T01:30:15.185Z,41.44
2023-05-09T01:31:15.121Z,41.42
2023-05-09T01:32:15.140Z,41.43
2023-05-09T01:33:15.167Z,41.45
2023-05-09T01:34:15.140Z,41.42
2023-05-09T01:35:15.398Z,41.44
2023-05-09T01:36:15.108Z,41.44
2023-05-09T01:37:15.099Z,41.44
2023-05-09T01:38:15.102Z,41.42
2023-05-09T01:39:15.197Z,41.42
2023-05-09T01:40:15.084Z,41.40
2023-05-09T01:41:15.119Z,41.42
2023-05-09T01:42:15.102Z,41.42
2023-05-09T01:43:15.138Z,41.41
2023-05-09T01:44:15.219Z,41.42
2023-05-09T01:45:15.482Z,41.42
2023-05-09T01:46:15.173Z,41.39
2023-05-09T01:47:15.111Z,41.41
2023-05-09T01:48:15.156Z,41.40
2023-05-09T01:49:15.132Z,41.40
2023-05-09T01:50:15.126Z,41.39
2023-05-09T01:51:15.145Z,41.39
2023-05-09T01:52:15.184Z,41.40
2023-05-09T01:53:15.154Z,41.39
2023-05-09T01:54:15.128Z,41.39
2023-05-09T01:55:15.400Z,41.37
2023-05-09T01:56:15.154Z,41.41
2023-05-09T01:57:15.173Z,41.39
2023-05-09T01:58:15.195Z,41.38
2023-05-09T01:59:15.168Z,41.37
2023-05-09T02:00:15.171Z,41.37
2023-05-09T02:01:15.266Z,41.36
2023-05-09T02:02:15.697Z,41.37
2023-05-09T02:03:15.202Z,41.36
2023-05-09T02:04:15.162Z,41.40
2023-05-09T02:05:15.350Z,41.37
2023-05-09T02:06:15.157Z,41.38
2023-05-09T02:07:15.177Z,41.38
2023-05-09T02:08:15.205Z,41.35
2023-05-09T02:09:15.189Z,41.36
2023-05-09T02:10:15.214Z,41.36
2023-05-09T02:11:15.328Z,41.36
2023-05-09T02:12:15.216Z,41.36
2023-05-09T02:13:15.264Z,41.35
2023-05-09T02:14:15.241Z,41.39
2023-05-09T02:15:15.528Z,41.37
2023-05-09T02:16:15.347Z,41.38
2023-05-09T02:17:15.673Z,41.38
2023-05-09T02:18:15.226Z,41.36
2023-05-09T02:19:15.225Z,41.37
2023-05-09T02:20:15.248Z,41.36
2023-05-09T02:21:15.319Z,41.35
2023-05-09T02:22:15.270Z,41.36
2023-05-09T02:23:15.289Z,41.33
2023-05-09T02:24:15.268Z,41.37
2023-05-09T02:25:15.625Z,41.32
2023-05-09T02:26:15.281Z,41.35
2023-05-09T02:27:15.371Z,41.34
2023-05-09T02:28:15.291Z,41.34
2023-05-09T02:29:15.304Z,41.32
2023-05-09T02:30:15.380Z,41.30
2023-05-09T02:31:15.384Z,41.31
2023-05-09T02:32:15.827Z,41.33
2023-05-09T02:33:15.320Z,41.31
2023-05-09T02:34:15.332Z,41.34
2023-05-09T02:35:15.550Z,41.33
2023-05-09T02:36:15.345Z,41.31
2023-05-09T02:37:15.662Z,41.32
2023-05-09T02:38:15.384Z,41.30
2023-05-09T02:39:15.365Z,41.32
2023-05-09T02:40:15.408Z,41.31
2023-05-09T02:41:15.379Z,41.32
2023-05-09T02:42:15.399Z,41.31
2023-05-09T02:43:15.446Z,41.31
2023-05-09T02:44:15.375Z,41.30
2023-05-09T02:45:15.547Z,41.32
2023-05-09T02:46:15.429Z,41.30
2023-05-09T02:47:15.395Z,41.30
2023-05-09T02:48:15.386Z,41.27
2023-05-09T02:49:26.670Z,41.27
2023-05-09T02:50:16.384Z,41.32
2023-05-09T02:51:15.416Z,41.30
2023-05-09T02:52:15.427Z,41.29
2023-05-09T02:53:15.363Z,41.28
2023-05-09T02:54:15.330Z,41.29
2023-05-09T02:55:15.614Z,41.27
2023-05-09T02:56:15.346Z,41.28
2023-05-09T02:57:15.680Z,41.30
2023-05-09T02:58:15.374Z,41.26
2023-05-09T02:59:15.419Z,41.29
2023-05-09T03:00:15.308Z,41.27
2023-05-09T03:01:15.350Z,41.26
2023-05-09T03:02:15.690Z,41.28
2023-05-09T03:03:15.418Z,41.27
2023-05-09T03:04:15.301Z,41.28
2023-05-09T03:05:15.439Z,41.27
2023-05-09T03:06:15.262Z,41.25
2023-05-09T03:07:15.280Z,41.27
2023-05-09T03:08:15.278Z,41.26
2023-05-09T03:09:15.258Z,41.25
2023-05-09T03:10:15.247Z,41.26
2023-05-09T03:11:15.218Z,41.25
2023-05-09T03:12:15.251Z,41.25
2023-05-09T03:13:15.264Z,41.25
2023-05-09T03:14:15.214Z,41.25
2023-05-09T03:15:15.512Z,41.24
2023-05-09T03:16:15.258Z,41.24
2023-05-09T03:17:15.228Z,41.25
2023-05-09T03:18:15.190Z,41.26
2023-05-09T03:19:15.196Z,41.25
2023-05-09T03:20:15.210Z,41.23
2023-05-09T03:21:15.216Z,41.22
2023-05-09T03:22:15.256Z,41.24
2023-05-09T03:23:15.276Z,41.24
2023-05-09T03:24:15.293Z,41.23
2023-05-09T03:25:15.559Z,41.24
2023-05-09T03:26:15.313Z,41.22
2023-05-09T03:27:15.681Z,41.24
2023-05-09T03:28:15.365Z,41.25
2023-05-09T03:29:15.337Z,41.23
2023-05-09T03:30:15.369Z,41.23
2023-05-09T03:31:15.374Z,41.24
2023-05-09T03:32:15.403Z,41.25
2023-05-09T03:33:15.399Z,41.24
2023-05-09T03:34:15.506Z,41.23
2023-05-09T03:35:15.583Z,41.23
2023-05-09T03:36:15.487Z,41.24
2023-05-09T03:37:15.480Z,41.22
2023-05-09T03:38:15.498Z,41.22
2023-05-09T03:39:15.494Z,41.23
2023-05-09T03:40:15.539Z,41.24
2023-05-09T03:41:15.545Z,41.21
2023-05-09T03:42:15.534Z,41.21
2023-05-09T03:43:15.582Z,41.22
2023-05-09T03:44:15.552Z,41.22
2023-05-09T03:45:15.722Z,41.21
2023-05-09T03:46:15.598Z,41.21
2023-05-09T03:47:15.826Z,41.22
2023-05-09T03:48:15.603Z,41.22
2023-05-09T03:49:15.631Z,41.22
2023-05-09T03:50:15.622Z,41.21
2023-05-09T03:51:15.647Z,41.20
2023-05-09T03:52:15.665Z,41.22
2023-05-09T03:53:15.693Z,41.23
2023-05-09T03:54:15.703Z,41.21
2023-05-09T03:55:15.947Z,41.20
2023-05-09T03:56:15.734Z,41.20
2023-05-09T03:57:16.190Z,41.24
2023-05-09T03:58:15.728Z,41.21
2023-05-09T03:59:15.742Z,41.21
2023-05-09T04:00:15.750Z,41.19
2023-05-09T04:01:15.746Z,41.20
2023-05-09T04:02:15.783Z,41.20
2023-05-09T04:03:16.060Z,41.21
2023-05-09T04:04:15.733Z,41.22
2023-05-09T04:05:16.107Z,41.20
2023-05-09T04:06:15.799Z,41.19
2023-05-09T04:07:16.204Z,41.21
2023-05-09T04:08:15.757Z,41.19
2023-05-09T04:09:15.757Z,41.19
2023-05-09T04:10:15.794Z,41.21
2023-05-09T04:11:15.822Z,41.20
2023-05-09T04:12:15.835Z,41.19
2023-05-09T04:13:15.893Z,41.18
2023-05-09T04:14:15.863Z,41.17
2023-05-09T04:15:16.142Z,41.16
2023-05-09T04:16:15.925Z,41.16
2023-05-09T04:17:15.892Z,41.19
2023-05-09T04:18:15.913Z,41.18
2023-05-09T04:19:16.671Z,41.20
2023-05-09T04:20:15.996Z,41.17
2023-05-09T04:21:15.955Z,41.22
2023-05-09T04:22:15.995Z,41.19
2023-05-09T04:23:16.017Z,41.16
2023-05-09T04:24:15.984Z,41.17
2023-05-09T04:25:16.240Z,41.18
2023-05-09T04:26:16.025Z,41.18
2023-05-09T04:27:16.042Z,41.17
2023-05-09T04:28:16.039Z,41.17
2023-05-09T04:29:16.070Z,41.18
2023-05-09T04:30:16.097Z,41.18
2023-05-09T04:31:16.280Z,41.16
2023-05-09T04:32:16.711Z,41.18
2023-05-09T04:33:16.121Z,41.19
2023-05-09T04:34:16.099Z,41.17
2023-05-09T04:35:18.965Z,41.16
2023-05-09T04:36:16.140Z,41.19
2023-05-09T04:37:16.207Z,41.16
2023-05-09T04:38:16.101Z,41.18
2023-05-09T04:39:16.113Z,41.18
2023-05-09T04:40:16.114Z,41.17
2023-05-09T04:41:16.099Z,41.16
2023-05-09T04:42:16.238Z,41.16
2023-05-09T04:43:16.096Z,41.40
2023-05-09T04:44:16.100Z,41.25
2023-05-09T04:45:16.254Z,41.21
2023-05-09T04:46:16.097Z,41.17
2023-05-09T04:47:16.082Z,41.17
2023-05-09T04:48:16.064Z,41.39
2023-05-09T04:49:16.009Z,41.34
2023-05-09T04:50:16.083Z,41.34
2023-05-09T04:51:16.133Z,41.43
2023-05-09T04:52:16.054Z,41.41
2023-05-09T04:53:16.017Z,41.43
2023-05-09T04:54:16.040Z,41.63
2023-05-09T04:55:16.230Z,41.63
2023-05-09T04:56:16.007Z,41.69
2023-05-09T04:57:18.344Z,41.79
2023-05-09T04:58:16.018Z,41.89
2023-05-09T04:59:15.993Z,42.19
2023-05-09T05:00:16.001Z,42.15
2023-05-09T05:01:16.056Z,42.17
2023-05-09T05:02:15.953Z,42.20
2023-05-09T05:03:15.942Z,42.19
2023-05-09T05:04:15.945Z,42.23
2023-05-09T05:05:15.932Z,42.21
2023-05-09T05:06:15.898Z,42.23
2023-05-09T05:07:15.991Z,42.20
2023-05-09T05:08:15.920Z,42.23
2023-05-09T05:09:15.918Z,42.21
2023-05-09T05:10:15.899Z,42.19
2023-05-09T05:11:15.900Z,42.20
2023-05-09T05:12:15.916Z,42.20
2023-05-09T05:13:15.895Z,42.21
2023-05-09T05:14:15.893Z,42.20
2023-05-09T05:15:16.152Z,42.21
2023-05-09T05:16:15.924Z,42.21
2023-05-09T05:17:15.839Z,42.28
2023-05-09T05:18:15.867Z,42.34
2023-05-09T05:19:15.817Z,42.42
2023-05-09T05:20:15.826Z,44.59
2023-05-09T05:21:15.838Z,43.99
2023-05-09T05:22:15.813Z,45.39
2023-05-09T05:23:15.905Z,45.15
2023-05-09T05:24:15.813Z,45.36
2023-05-09T05:25:15.983Z,45.77
2023-05-09T05:26:15.752Z,46.33
2023-05-09T05:27:15.825Z,46.19
2023-05-09T05:28:15.778Z,46.68
2023-05-09T05:29:15.768Z,47.01
2023-05-09T05:30:15.952Z,47.77
2023-05-09T05:31:15.798Z,47.85
2023-05-09T05:32:15.765Z,48.06
2023-05-09T05:33:15.755Z,48.11
2023-05-09T05:34:15.783Z,48.30
2023-05-09T05:35:15.953Z,48.77
2023-05-09T05:36:15.737Z,49.22
2023-05-09T05:37:15.720Z,49.29
2023-05-09T05:38:15.694Z,49.61
2023-05-09T05:39:15.752Z,49.85
2023-05-09T05:40:15.711Z,50.00
2023-05-09T05:41:15.712Z,49.87
2023-05-09T05:42:15.720Z,50.26
2023-05-09T05:43:15.771Z,49.99
2023-05-09T05:44:15.661Z,50.15
2023-05-09T05:45:15.964Z,50.18
2023-05-09T05:46:15.702Z,50.31
2023-05-09T05:47:15.667Z,50.11
2023-05-09T05:48:15.668Z,50.18
2023-05-09T05:49:15.648Z,50.23
2023-05-09T05:50:15.668Z,50.20
2023-05-09T05:51:15.608Z,50.14
2023-05-09T05:52:15.604Z,50.07
2023-05-09T05:53:15.737Z,50.01
2023-05-09T05:54:15.599Z,49.91
2023-05-09T05:55:15.936Z,50.02
2023-05-09T05:56:15.573Z,49.77
2023-05-09T05:57:15.559Z,49.75
2023-05-09T05:58:15.743Z,49.69
2023-05-09T05:59:15.547Z,49.64
2023-05-09T06:00:15.519Z,49.48
2023-05-09T06:01:15.551Z,49.32
2023-05-09T06:02:15.582Z,49.35
2023-05-09T06:03:15.790Z,49.16
2023-05-09T06:04:15.569Z,49.21
2023-05-09T06:05:15.594Z,49.02
2023-05-09T06:06:15.481Z,49.02
2023-05-09T06:07:15.497Z,48.90
2023-05-09T06:08:15.729Z,48.71
2023-05-09T06:09:15.437Z,48.70
2023-05-09T06:10:15.469Z,48.63
2023-05-09T06:11:15.456Z,48.44
2023-05-09T06:12:15.444Z,48.40
2023-05-09T06:13:15.796Z,48.32
2023-05-09T06:14:15.449Z,48.15
2023-05-09T06:15:15.720Z,48.08
2023-05-09T06:16:20.018Z,47.87
2023-05-09T06:17:16.542Z,47.80
2023-05-09T06:18:15.464Z,47.74
2023-05-09T06:19:15.413Z,47.62
2023-05-09T06:20:15.401Z,47.49
2023-05-09T06:21:15.398Z,47.36
2023-05-09T06:22:15.379Z,47.26
2023-05-09T06:23:15.392Z,47.16
2023-05-09T06:24:27.431Z,47.06
2023-05-09T06:25:16.583Z,46.98
2023-05-09T06:26:15.325Z,46.93
2023-05-09T06:27:15.429Z,46.82
2023-05-09T06:28:15.322Z,46.72
2023-05-09T06:29:15.335Z,46.66
2023-05-09T06:30:25.835Z,46.59
2023-05-09T06:31:16.328Z,46.55
2023-05-09T06:32:15.338Z,46.41
2023-05-09T06:33:15.311Z,46.40
2023-05-09T06:34:15.327Z,46.28
2023-05-09T06:35:15.571Z,46.26
2023-05-09T06:36:15.273Z,46.15
2023-05-09T06:37:15.250Z,46.08
2023-05-09T06:38:15.243Z,46.01
2023-05-09T06:39:15.311Z,45.90
2023-05-09T06:40:15.256Z,45.88
2023-05-09T06:41:15.244Z,45.77
2023-05-09T06:42:15.256Z,45.76
2023-05-09T06:43:15.354Z,45.64
2023-05-09T06:44:15.245Z,45.62
2023-05-09T06:45:15.492Z,45.54
2023-05-09T06:46:15.300Z,45.49
2023-05-09T06:47:15.235Z,45.46
2023-05-09T06:48:15.267Z,45.44
2023-05-09T06:49:15.224Z,45.37
2023-05-09T06:50:15.260Z,45.31
2023-05-09T06:51:15.341Z,45.25
2023-05-09T06:52:15.408Z,45.26
2023-05-09T06:53:15.344Z,45.16
2023-05-09T06:54:15.390Z,45.64
2023-05-09T06:55:15.681Z,45.52
2023-05-09T06:56:15.464Z,46.17
2023-05-09T06:57:15.517Z,46.59
2023-05-09T06:58:15.779Z,46.78
2023-05-09T06:59:15.540Z,46.88
2023-05-09T07:00:15.579Z,47.09
2023-05-09T07:01:15.609Z,46.75
2023-05-09T07:02:15.591Z,46.56
2023-05-09T07:03:15.594Z,46.12
2023-05-09T07:04:15.593Z,46.24
2023-05-09T07:05:15.842Z,46.09
2023-05-09T07:06:15.618Z,45.97
2023-05-09T07:07:15.606Z,46.44
2023-05-09T07:08:15.604Z,46.47
2023-05-09T07:09:15.606Z,46.51
2023-05-09T07:10:15.605Z,46.55
2023-05-09T07:11:15.639Z,46.47
2023-05-09T07:12:15.699Z,46.49
2023-05-09T07:13:15.808Z,46.38
2023-05-09T07:14:15.814Z,46.35
2023-05-09T07:15:25.667Z,46.36
2023-05-09T07:16:16.870Z,45.65
2023-05-09T07:17:23.684Z,45.55
2023-05-09T07:18:16.857Z,45.13
2023-05-09T07:19:15.832Z,44.83
2023-05-09T07:20:15.822Z,44.84
2023-05-09T07:21:15.812Z,45.13
2023-05-09T07:22:15.797Z,44.80
2023-05-09T07:23:15.796Z,44.54
2023-05-09T07:24:15.771Z,45.16
2023-05-09T07:25:15.997Z,45.47
2023-05-09T07:26:15.775Z,45.57
2023-05-09T07:27:15.781Z,45.78
2023-05-09T07:28:16.286Z,45.88
2023-05-09T07:29:15.839Z,46.03
2023-05-09T07:30:15.992Z,46.07
2023-05-09T07:31:16.037Z,46.05
2023-05-09T07:32:15.981Z,46.00
2023-05-09T07:33:16.298Z,45.86
2023-05-09T07:34:16.020Z,45.82
2023-05-09T07:35:16.253Z,45.69
2023-05-09T07:36:16.054Z,45.57
2023-05-09T07:37:16.534Z,45.54
2023-05-09T07:38:16.310Z,45.50
2023-05-09T07:39:16.166Z,45.31
2023-05-09T07:40:16.474Z,45.10
2023-05-09T07:41:16.255Z,45.09
2023-05-09T07:42:16.249Z,45.24
2023-05-09T07:43:16.295Z,45.36
2023-05-09T07:44:16.291Z,45.47
2023-05-09T07:45:16.659Z,45.60
2023-05-09T07:46:16.407Z,45.74
2023-05-09T07:47:16.409Z,45.90
2023-05-09T07:48:16.768Z,46.25
2023-05-09T07:49:16.312Z,46.13
2023-05-09T07:50:16.312Z,45.80
2023-05-09T07:51:16.343Z,45.58
2023-05-09T07:52:16.333Z,45.72
2023-05-09T07:53:16.296Z,45.71
2023-05-09T07:54:16.818Z,45.79
2023-05-09T07:55:16.564Z,45.77
2023-05-09T07:56:16.349Z,45.75
2023-05-09T07:57:16.397Z,45.62
2023-05-09T07:58:16.434Z,45.54
2023-05-09T07:59:16.467Z,45.58
2023-05-09T08:00:16.505Z,45.46
2023-05-09T08:01:16.522Z,45.27
2023-05-09T08:02:16.626Z,45.18
2023-05-09T08:03:16.854Z,45.13
2023-05-09T08:04:16.801Z,45.00
2023-05-09T08:05:17.024Z,44.87
2023-05-09T08:06:16.696Z,44.87
2023-05-09T08:07:16.827Z,44.92
2023-05-09T08:08:16.776Z,45.15
2023-05-09T08:09:16.844Z,44.99
2023-05-09T08:10:16.905Z,45.05
2023-05-09T08:11:16.929Z,44.96
2023-05-09T08:12:17.033Z,44.91
2023-05-09T08:13:17.050Z,44.97
2023-05-09T08:14:17.300Z,44.95
2023-05-09T08:15:17.422Z,44.81
2023-05-09T08:16:17.261Z,44.59
2023-05-09T08:17:17.242Z,44.32
2023-05-09T08:18:17.304Z,44.34
2023-05-09T08:19:17.474Z,44.32
2023-05-09T08:20:17.387Z,44.42
2023-05-09T08:21:17.824Z,44.45
2023-05-09T08:22:17.532Z,44.48
2023-05-09T08:23:17.605Z,44.28
2023-05-09T08:24:17.677Z,44.20
2023-05-09T08:25:17.738Z,43.98
2023-05-09T08:26:17.720Z,44.17
2023-05-09T08:27:17.792Z,44.05
2023-05-09T08:28:17.973Z,43.92
2023-05-09T08:29:17.872Z,43.86
2023-05-09T08:30:17.892Z,43.88
2023-05-09T08:31:18.004Z,43.79
2023-05-09T08:32:17.996Z,43.75
2023-05-09T08:33:18.121Z,43.55
2023-05-09T08:34:18.048Z,43.66
2023-05-09T08:35:18.240Z,43.53
2023-05-09T08:36:18.105Z,43.43
2023-05-09T08:37:18.155Z,43.54
2023-05-09T08:38:18.202Z,43.47
2023-05-09T08:39:18.297Z,43.44
2023-05-09T08:40:18.244Z,43.30
2023-05-09T08:41:18.261Z,43.45
2023-05-09T08:42:18.317Z,43.49
2023-05-09T08:43:18.325Z,43.51
2023-05-09T08:44:18.856Z,43.40
2023-05-09T08:45:18.382Z,43.37
2023-05-09T08:46:18.446Z,43.24
2023-05-09T08:47:18.420Z,43.30
2023-05-09T08:48:18.420Z,43.86
2023-05-09T08:49:18.835Z,43.81
2023-05-09T08:50:18.829Z,44.03
2023-05-09T08:51:18.570Z,43.67
2023-05-09T08:52:18.491Z,43.60
2023-05-09T08:53:18.510Z,43.81
2023-05-09T08:54:20.075Z,43.95
2023-05-09T08:55:18.510Z,44.02
2023-05-09T08:56:18.507Z,43.83
2023-05-09T08:57:18.523Z,43.57
2023-05-09T08:58:18.530Z,44.25
2023-05-09T08:59:18.505Z,42.96
2023-05-09T09:00:20.467Z,43.05
2023-05-09T09:01:18.526Z,42.62
2023-05-09T09:02:18.512Z,42.55
2023-05-09T09:03:18.533Z,42.09
2023-05-09T09:04:18.590Z,42.01
2023-05-09T09:05:39.643Z,42.26
2023-05-09T09:06:19.612Z,41.76
2023-05-09T09:07:18.674Z,41.90
2023-05-09T09:08:18.552Z,42.23
2023-05-09T09:09:18.812Z,42.04
2023-05-09T09:10:18.564Z,41.87
2023-05-09T09:11:18.592Z,41.76
2023-05-09T09:12:18.578Z,41.90
2023-05-09T09:13:18.598Z,41.78
2023-05-09T09:14:18.535Z,41.56
2023-05-09T09:15:18.556Z,41.79
2023-05-09T09:16:18.644Z,41.80
2023-05-09T09:17:18.667Z,41.64
2023-05-09T09:18:18.724Z,41.72
2023-05-09T09:19:18.811Z,41.21
2023-05-09T09:20:18.851Z,41.29
2023-05-09T09:21:18.909Z,41.25
2023-05-09T09:22:18.950Z,40.82
2023-05-09T09:23:19.105Z,41.11
2023-05-09T09:24:19.064Z,41.04
2023-05-09T09:25:19.141Z,41.46
2023-05-09T09:26:19.195Z,41.07
2023-05-09T09:27:19.327Z,40.92
2023-05-09T09:28:19.322Z,41.29
2023-05-09T09:29:19.331Z,41.40
2023-05-09T09:30:19.450Z,41.60
2023-05-09T09:31:19.511Z,41.52
2023-05-09T09:32:19.552Z,41.65
2023-05-09T09:33:19.568Z,41.70
2023-05-09T09:34:19.607Z,41.69
2023-05-09T09:35:19.662Z,41.75
2023-05-09T09:36:19.734Z,41.71
2023-05-09T09:37:19.724Z,41.71
2023-05-09T09:38:19.819Z,41.81
2023-05-09T09:39:19.898Z,41.95
2023-05-09T09:40:19.904Z,42.05
2023-05-09T09:41:19.933Z,41.91
2023-05-09T09:42:19.964Z,41.86
2023-05-09T09:43:20.013Z,41.91
2023-05-09T09:44:20.330Z,42.25
2023-05-09T09:45:20.236Z,42.28
2023-05-09T09:46:20.160Z,42.06
2023-05-09T09:47:20.170Z,41.95
2023-05-09T09:48:20.222Z,42.26
2023-05-09T09:49:20.320Z,42.01
2023-05-09T09:50:20.422Z,41.60
2023-05-09T09:51:20.386Z,41.52
2023-05-09T09:52:20.408Z,41.50
2023-05-09T09:53:20.436Z,41.47
2023-05-09T09:54:20.876Z,41.49
2023-05-09T09:55:20.584Z,41.55
2023-05-09T09:56:20.532Z,41.32
2023-05-09T09:57:20.525Z,41.30
2023-05-09T09:58:20.608Z,41.44
2023-05-09T09:59:20.611Z,41.50
2023-05-09T10:00:20.643Z,41.41
2023-05-09T10:01:20.755Z,41.37
2023-05-09T10:02:20.729Z,41.19
2023-05-09T10:03:20.844Z,41.24
2023-05-09T10:04:20.737Z,41.37
2023-05-09T10:05:20.781Z,41.22
2023-05-09T10:06:20.798Z,41.04
2023-05-09T10:07:20.796Z,40.95
2023-05-09T10:08:20.764Z,40.89
2023-05-09T10:09:20.882Z,40.87
2023-05-09T10:10:20.879Z,40.99
2023-05-09T10:11:20.978Z,40.90
2023-05-09T10:12:20.861Z,40.81
2023-05-09T10:13:20.987Z,40.65
2023-05-09T10:14:20.838Z,40.60
2023-05-09T10:15:20.926Z,40.56
2023-05-09T10:16:35.709Z,40.54
2023-05-09T10:17:22.089Z,40.51
2023-05-09T10:18:21.044Z,40.45
2023-05-09T10:19:21.361Z,40.43
2023-05-09T10:20:20.897Z,40.40
2023-05-09T10:21:20.893Z,40.35
2023-05-09T10:22:20.897Z,40.30
2023-05-09T10:23:20.895Z,40.28
2023-05-09T10:24:20.886Z,40.25
2023-05-09T10:25:20.851Z,40.21
2023-05-09T10:26:20.841Z,40.18
2023-05-09T10:27:20.824Z,40.13
2023-05-09T10:28:20.839Z,40.11
2023-05-09T10:29:20.823Z,40.09
2023-05-09T10:30:20.809Z,40.10
2023-05-09T10:31:20.864Z,40.01
2023-05-09T10:32:20.856Z,39.99
2023-05-09T10:33:20.795Z,39.92
2023-05-09T10:34:20.804Z,39.89
2023-05-09T10:35:20.800Z,39.83
2023-05-09T10:36:20.812Z,39.80
2023-05-09T10:37:20.777Z,39.80
2023-05-09T10:38:20.750Z,39.81
2023-05-09T10:39:20.753Z,39.75
2023-05-09T10:40:20.765Z,39.74
2023-05-09T10:41:20.733Z,39.67
2023-05-09T10:42:20.732Z,39.64
2023-05-09T10:43:20.839Z,39.64
2023-05-09T10:44:20.843Z,39.62
2023-05-09T10:45:20.728Z,39.58
2023-05-09T10:46:20.741Z,39.56
2023-05-09T10:47:20.759Z,39.57
2023-05-09T10:48:20.685Z,39.57
2023-05-09T10:49:20.681Z,39.79
2023-05-09T10:50:20.720Z,40.15
2023-05-09T10:51:20.687Z,40.37
2023-05-09T10:52:20.674Z,40.34
2023-05-09T10:53:20.686Z,40.43
2023-05-09T10:54:20.854Z,40.44
2023-05-09T10:55:20.739Z,40.55
2023-05-09T10:56:20.757Z,40.55
2023-05-09T10:57:20.751Z,40.61
2023-05-09T10:58:20.801Z,40.63
2023-05-09T10:59:20.787Z,40.60
2023-05-09T11:00:20.801Z,40.54
2023-05-09T11:01:20.786Z,40.57
2023-05-09T11:02:20.776Z,40.52
2023-05-09T11:03:20.817Z,40.55
2023-05-09T11:04:21.372Z,40.59
2023-05-09T11:05:20.881Z,40.65
2023-05-09T11:06:20.869Z,40.55
2023-05-09T11:07:20.875Z,40.61
2023-05-09T11:08:20.886Z,40.78
2023-05-09T11:09:20.928Z,40.76
2023-05-09T11:10:21.925Z,40.64
2023-05-09T11:11:20.941Z,40.68
2023-05-09T11:12:20.912Z,40.66
2023-05-09T11:13:21.095Z,40.76
2023-05-09T11:14:21.358Z,40.60
2023-05-09T11:15:20.996Z,40.64
2023-05-09T11:16:20.959Z,40.63
2023-05-09T11:17:20.928Z,40.55
2023-05-09T11:18:20.899Z,40.42
2023-05-09T11:19:21.127Z,40.42
2023-05-09T11:20:21.415Z,40.44
2023-05-09T11:21:20.981Z,40.33
2023-05-09T11:22:21.039Z,40.35
2023-05-09T11:23:21.046Z,40.37
2023-05-09T11:24:21.877Z,40.35
2023-05-09T11:25:21.379Z,40.38
2023-05-09T11:26:21.086Z,40.17
2023-05-09T11:27:21.107Z,40.10
2023-05-09T11:28:21.083Z,40.13
2023-05-09T11:29:21.146Z,40.08
2023-05-09T11:30:21.139Z,40.03
2023-05-09T11:31:21.265Z,39.90
2023-05-09T11:32:21.202Z,39.92
2023-05-09T11:33:21.201Z,39.85
2023-05-09T11:34:21.193Z,39.31
2023-05-09T11:35:21.463Z,39.04
2023-05-09T11:36:21.342Z,39.02
2023-05-09T11:37:21.268Z,38.57
2023-05-09T11:38:21.334Z,38.46
2023-05-09T11:39:21.347Z,38.51
2023-05-09T11:40:21.341Z,38.41
2023-05-09T11:41:21.497Z,37.89
2023-05-09T11:42:21.351Z,37.69
2023-05-09T11:43:21.300Z,37.44
2023-05-09T11:44:21.343Z,37.34
2023-05-09T11:45:21.372Z,37.23
2023-05-09T11:46:21.355Z,37.16
2023-05-09T11:47:21.480Z,37.15
2023-05-09T11:48:21.286Z,37.13
2023-05-09T11:49:21.342Z,36.98
2023-05-09T11:50:21.303Z,36.98
2023-05-09T11:51:21.315Z,36.90
2023-05-09T11:52:21.319Z,36.88
2023-05-09T11:53:21.373Z,36.88
2023-05-09T11:54:21.338Z,36.81
2023-05-09T11:55:21.371Z,36.80
2023-05-09T11:56:21.346Z,36.67
2023-05-09T11:57:21.357Z,36.64
2023-05-09T11:58:21.366Z,36.59
2023-05-09T11:59:21.393Z,36.54
2023-05-09T12:00:21.880Z,36.35
2023-05-09T12:01:21.578Z,36.33
2023-05-09T12:02:21.618Z,36.24
2023-05-09T12:03:21.858Z,36.03
2023-05-09T12:04:21.675Z,36.00
2023-05-09T12:05:21.687Z,35.96
2023-05-09T12:06:21.663Z,35.72
2023-05-09T12:07:21.666Z,35.74
2023-05-09T12:08:21.765Z,35.50
2023-05-09T12:09:21.733Z,35.42
2023-05-09T12:10:21.885Z,35.30
2023-05-09T12:11:21.853Z,35.31
2023-05-09T12:12:21.909Z,35.12
2023-05-09T12:13:21.882Z,35.07
2023-05-09T12:14:21.869Z,34.99
2023-05-09T12:15:22.217Z,34.90
2023-05-09T12:16:22.004Z,34.86
2023-05-09T12:17:21.975Z,34.77
2023-05-09T12:18:21.965Z,34.74
2023-05-09T12:19:22.117Z,34.71
2023-05-09T12:20:22.426Z,34.63
2023-05-09T12:21:22.238Z,34.60
2023-05-09T12:22:22.038Z,34.54
2023-05-09T12:23:22.038Z,34.52
2023-05-09T12:24:22.266Z,34.39
2023-05-09T12:25:22.274Z,34.34
2023-05-09T12:26:22.277Z,34.25
2023-05-09T12:27:22.197Z,34.20
2023-05-09T12:28:22.234Z,34.16
2023-05-09T12:29:22.229Z,34.14
2023-05-09T12:30:22.213Z,34.05
2023-05-09T12:31:22.259Z,34.05
2023-05-09T12:32:22.234Z,34.08
2023-05-09T12:33:22.201Z,33.95
2023-05-09T12:34:22.223Z,34.02
2023-05-09T12:35:22.381Z,34.09
2023-05-09T12:36:22.339Z,34.19
2023-05-09T12:37:22.337Z,34.46
2023-05-09T12:38:22.385Z,34.59
2023-05-09T12:39:22.406Z,34.69
2023-05-09T12:40:22.867Z,34.83
2023-05-09T12:41:36.901Z,34.92
2023-05-09T12:42:23.495Z,34.71
2023-05-09T12:43:22.457Z,34.77
2023-05-09T12:44:22.484Z,34.81
2023-05-09T12:45:22.431Z,34.71
2023-05-09T12:46:22.462Z,34.80
2023-05-09T12:47:22.418Z,34.71
2023-05-09T12:48:23.449Z,34.75
2023-05-09T12:49:22.506Z,34.68
2023-05-09T12:50:22.428Z,34.67
2023-05-09T12:51:22.621Z,34.68
2023-05-09T12:52:22.548Z,34.47